sensor_id;sensor_type;location;lat;lon;timestamp;temperature;humidity
27890;DHT22;15238;49.082;9.102;2023-04-04T00:01:19;1.10;99.90
27890;DHT22;15238;49.082;9.102;2023-04-04T00:03:20;1.00;99.90
27890;DHT22;15238;49.082;9.102;2023-04-04T00:05:20;1.00;99.90
27890;DHT22;15238;49.082;9.102;2023-04-04T00:07:21;1.00;99.90
27890;DHT22;15238;49.082;9.102;2023-04-04T00:09:21;0.90;99.90
27890;DHT22;15238;49.082;9.102;2023-04-04T00:11:22;0.90;99.90
27890;DHT22;15238;49.082;9.102;2023-04-04T00:13:23;0.90;99.90
27890;DHT22;15238;49.082;9.102;2023-04-04T00:15:23;0.90;99.90
27890;DHT22;15238;49.082;9.102;2023-04-04T00:17:24;0.80;99.90
27890;DHT22;15238;49.082;9.102;2023-04-04T00:19:24;0.80;99.90
27890;DHT22;15238;49.082;9.102;2023-04-04T00:21:25;0.80;99.90
27890;DHT22;15238;49.082;9.102;2023-04-04T00:23:26;0.70;99.90
27890;DHT22;15238;49.082;9.102;2023-04-04T00:25:27;0.60;99.90
27890;DHT22;15238;49.082;9.102;2023-04-04T00:27:28;0.50;99.90
27890;DHT22;15238;49.082;9.102;2023-04-04T00:29:28;0.50;99.90
27890;DHT22;15238;49.082;9.102;2023-04-04T00:31:29;0.50;99.90
27890;DHT22;15238;49.082;9.102;2023-04-04T00:33:30;0.40;99.90
27890;DHT22;15238;49.082;9.102;2023-04-04T00:35:30;0.30;99.90
27890;DHT22;15238;49.082;9.102;2023-04-04T00:37:32;0.30;99.90
27890;DHT22;15238;49.082;9.102;2023-04-04T00:39:33;0.30;99.90
27890;DHT22;15238;49.082;9.102;2023-04-04T00:41:34;0.30;99.90
27890;DHT22;15238;49.082;9.102;2023-04-04T00:43:35;0.20;99.90
27890;DHT22;15238;49.082;9.102;2023-04-04T00:45:35;0.10;99.90
27890;DHT22;15238;49.082;9.102;2023-04-04T00:47:36;0.10;99.90
27890;DHT22;15238;49.082;9.102;2023-04-04T00:49:38;0.10;99.90
27890;DHT22;15238;49.082;9.102;2023-04-04T00:51:38;0.00;99.90
27890;DHT22;15238;49.082;9.102;2023-04-04T00:53:39;0.00;99.90
27890;DHT22;15238;49.082;9.102;2023-04-04T00:55:39;-0.10;99.90
27890;DHT22;15238;49.082;9.102;2023-04-04T00:57:42;-0.10;99.90
27890;DHT22;15238;49.082;9.102;2023-04-04T00:59:43;-0.10;99.90
27890;DHT22;15238;49.082;9.102;2023-04-04T01:01:44;-0.10;99.90
27890;DHT22;15238;49.082;9.102;2023-04-04T01:03:44;-0.10;99.90
27890;DHT22;15238;49.082;9.102;2023-04-04T01:05:45;-0.10;99.90
27890;DHT22;15238;49.082;9.102;2023-04-04T01:07:46;-0.10;99.90
27890;DHT22;15238;49.082;9.102;2023-04-04T01:09:47;-0.10;99.90
27890;DHT22;15238;49.082;9.102;2023-04-04T01:11:48;-0.20;99.90
27890;DHT22;15238;49.082;9.102;2023-04-04T01:13:49;-0.20;99.90
27890;DHT22;15238;49.082;9.102;2023-04-04T01:15:49;-0.20;99.90
27890;DHT22;15238;49.082;9.102;2023-04-04T01:17:51;-0.20;99.90
27890;DHT22;15238;49.082;9.102;2023-04-04T01:21:56;-0.30;99.90
27890;DHT22;15238;49.082;9.102;2023-04-04T01:24:00;-0.30;99.90
27890;DHT22;15238;49.082;9.102;2023-04-04T01:26:03;-0.40;99.90
27890;DHT22;15238;49.082;9.102;2023-04-04T01:28:04;-0.40;99.90
27890;DHT22;15238;49.082;9.102;2023-04-04T01:30:05;-0.50;99.90
27890;DHT22;15238;49.082;9.102;2023-04-04T01:32:11;-0.50;99.90
27890;DHT22;15238;49.082;9.102;2023-04-04T01:34:23;-0.60;99.90
27890;DHT22;15238;49.082;9.102;2023-04-04T01:36:33;-0.70;99.90
27890;DHT22;15238;49.082;9.102;2023-04-04T01:40:40;-0.80;99.90
27890;DHT22;15238;49.082;9.102;2023-04-04T01:42:44;-0.80;99.90
27890;DHT22;15238;49.082;9.102;2023-04-04T01:44:45;-0.80;99.90
27890;DHT22;15238;49.082;9.102;2023-04-04T01:46:46;-0.90;99.90
27890;DHT22;15238;49.082;9.102;2023-04-04T01:48:47;-0.90;99.90
27890;DHT22;15238;49.082;9.102;2023-04-04T01:50:47;-1.00;99.90
27890;DHT22;15238;49.082;9.102;2023-04-04T01:52:48;-1.00;99.90
27890;DHT22;15238;49.082;9.102;2023-04-04T01:54:49;-1.00;99.90
27890;DHT22;15238;49.082;9.102;2023-04-04T01:56:49;-1.00;99.90
27890;DHT22;15238;49.082;9.102;2023-04-04T01:58:50;-0.90;99.90
27890;DHT22;15238;49.082;9.102;2023-04-04T02:00:52;-0.90;99.90
27890;DHT22;15238;49.082;9.102;2023-04-04T02:02:53;-0.90;99.90
27890;DHT22;15238;49.082;9.102;2023-04-04T02:04:53;-0.90;99.90
27890;DHT22;15238;49.082;9.102;2023-04-04T02:06:54;-0.90;99.90
27890;DHT22;15238;49.082;9.102;2023-04-04T02:08:56;-0.90;99.90
27890;DHT22;15238;49.082;9.102;2023-04-04T02:10:57;-0.90;99.90
27890;DHT22;15238;49.082;9.102;2023-04-04T02:12:58;-0.90;99.90
27890;DHT22;15238;49.082;9.102;2023-04-04T02:14:59;-1.00;99.90
27890;DHT22;15238;49.082;9.102;2023-04-04T02:16:59;-1.00;99.90
27890;DHT22;15238;49.082;9.102;2023-04-04T02:19:00;-1.00;99.90
27890;DHT22;15238;49.082;9.102;2023-04-04T02:21:01;-1.00;99.90
27890;DHT22;15238;49.082;9.102;2023-04-04T02:23:01;-1.00;99.90
27890;DHT22;15238;49.082;9.102;2023-04-04T02:25:02;-1.00;99.90
27890;DHT22;15238;49.082;9.102;2023-04-04T02:27:03;-1.00;99.90
27890;DHT22;15238;49.082;9.102;2023-04-04T02:29:04;-1.00;99.90
27890;DHT22;15238;49.082;9.102;2023-04-04T02:31:04;-1.00;99.90
27890;DHT22;15238;49.082;9.102;2023-04-04T02:33:05;-1.00;99.90
27890;DHT22;15238;49.082;9.102;2023-04-04T02:35:06;-0.90;99.90
27890;DHT22;15238;49.082;9.102;2023-04-04T02:37:06;-1.00;99.90
27890;DHT22;15238;49.082;9.102;2023-04-04T02:39:08;-1.00;99.90
27890;DHT22;15238;49.082;9.102;2023-04-04T02:41:08;-1.00;99.90
27890;DHT22;15238;49.082;9.102;2023-04-04T02:43:09;-1.00;99.90
27890;DHT22;15238;49.082;9.102;2023-04-04T02:45:10;-1.10;99.90
27890;DHT22;15238;49.082;9.102;2023-04-04T02:47:11;-1.20;99.90
27890;DHT22;15238;49.082;9.102;2023-04-04T02:49:11;-1.20;99.90
27890;DHT22;15238;49.082;9.102;2023-04-04T02:51:12;-1.20;99.90
27890;DHT22;15238;49.082;9.102;2023-04-04T02:53:13;-1.20;99.90
27890;DHT22;15238;49.082;9.102;2023-04-04T02:55:13;-1.20;99.90
27890;DHT22;15238;49.082;9.102;2023-04-04T02:57:14;-1.30;99.90
27890;DHT22;15238;49.082;9.102;2023-04-04T02:59:14;-1.30;99.90
27890;DHT22;15238;49.082;9.102;2023-04-04T03:01:16;-1.30;99.90
27890;DHT22;15238;49.082;9.102;2023-04-04T03:03:17;-1.30;99.90
27890;DHT22;15238;49.082;9.102;2023-04-04T03:05:17;-1.40;99.90
27890;DHT22;15238;49.082;9.102;2023-04-04T03:07:18;-1.30;99.90
27890;DHT22;15238;49.082;9.102;2023-04-04T03:09:18;-1.30;99.90
27890;DHT22;15238;49.082;9.102;2023-04-04T03:11:19;-1.30;99.90
27890;DHT22;15238;49.082;9.102;2023-04-04T03:13:20;-1.20;99.90
27890;DHT22;15238;49.082;9.102;2023-04-04T03:15:21;-1.10;99.90
27890;DHT22;15238;49.082;9.102;2023-04-04T03:17:21;-1.00;99.90
27890;DHT22;15238;49.082;9.102;2023-04-04T03:19:23;-1.00;99.90
27890;DHT22;15238;49.082;9.102;2023-04-04T03:21:23;-1.00;99.90
27890;DHT22;15238;49.082;9.102;2023-04-04T03:23:24;-1.00;99.90
27890;DHT22;15238;49.082;9.102;2023-04-04T03:25:25;-1.00;99.90
27890;DHT22;15238;49.082;9.102;2023-04-04T03:27:25;-1.00;99.90
27890;DHT22;15238;49.082;9.102;2023-04-04T03:29:26;-1.00;99.90
27890;DHT22;15238;49.082;9.102;2023-04-04T03:31:26;-1.10;99.90
27890;DHT22;15238;49.082;9.102;2023-04-04T03:33:27;-1.10;99.90
27890;DHT22;15238;49.082;9.102;2023-04-04T03:35:27;-1.10;99.90
27890;DHT22;15238;49.082;9.102;2023-04-04T03:37:29;-1.20;99.90
27890;DHT22;15238;49.082;9.102;2023-04-04T03:39:30;-1.20;99.90
27890;DHT22;15238;49.082;9.102;2023-04-04T03:41:30;-1.20;99.90
27890;DHT22;15238;49.082;9.102;2023-04-04T03:43:31;-1.10;99.90
27890;DHT22;15238;49.082;9.102;2023-04-04T03:45:34;-1.20;99.90
27890;DHT22;15238;49.082;9.102;2023-04-04T03:47:35;-1.10;99.90
27890;DHT22;15238;49.082;9.102;2023-04-04T03:49:35;-1.10;99.90
27890;DHT22;15238;49.082;9.102;2023-04-04T03:51:36;-1.10;99.90
27890;DHT22;15238;49.082;9.102;2023-04-04T03:53:37;-1.10;99.90
27890;DHT22;15238;49.082;9.102;2023-04-04T03:55:40;-1.10;99.90
27890;DHT22;15238;49.082;9.102;2023-04-04T03:57:41;-1.10;99.90
27890;DHT22;15238;49.082;9.102;2023-04-04T03:59:42;-1.20;99.90
27890;DHT22;15238;49.082;9.102;2023-04-04T04:01:42;-1.20;99.90
27890;DHT22;15238;49.082;9.102;2023-04-04T04:03:43;-1.20;99.90
27890;DHT22;15238;49.082;9.102;2023-04-04T04:05:43;-1.30;99.90
27890;DHT22;15238;49.082;9.102;2023-04-04T04:07:44;-1.30;99.90
27890;DHT22;15238;49.082;9.102;2023-04-04T04:09:44;-1.40;99.90
27890;DHT22;15238;49.082;9.102;2023-04-04T04:11:46;-1.40;99.90
27890;DHT22;15238;49.082;9.102;2023-04-04T04:13:46;-1.40;99.90
27890;DHT22;15238;49.082;9.102;2023-04-04T04:15:47;-1.40;99.90
27890;DHT22;15238;49.082;9.102;2023-04-04T04:17:47;-1.40;99.90
27890;DHT22;15238;49.082;9.102;2023-04-04T04:19:48;-1.50;99.90
27890;DHT22;15238;49.082;9.102;2023-04-04T04:21:48;-1.50;99.90
27890;DHT22;15238;49.082;9.102;2023-04-04T04:23:49;-1.50;99.90
27890;DHT22;15238;49.082;9.102;2023-04-04T04:25:49;-1.50;99.90
27890;DHT22;15238;49.082;9.102;2023-04-04T04:27:53;-1.50;99.90
27890;DHT22;15238;49.082;9.102;2023-04-04T04:29:54;-1.50;99.90
27890;DHT22;15238;49.082;9.102;2023-04-04T04:31:54;-1.60;99.90
27890;DHT22;15238;49.082;9.102;2023-04-04T04:33:55;-1.60;99.90
27890;DHT22;15238;49.082;9.102;2023-04-04T04:36:03;-1.60;99.90
27890;DHT22;15238;49.082;9.102;2023-04-04T04:38:04;-1.60;99.90
27890;DHT22;15238;49.082;9.102;2023-04-04T04:40:06;-1.70;99.90
27890;DHT22;15238;49.082;9.102;2023-04-04T04:42:07;-1.70;99.90
27890;DHT22;15238;49.082;9.102;2023-04-04T04:44:07;-1.70;99.90
27890;DHT22;15238;49.082;9.102;2023-04-04T04:46:08;-1.80;99.90
27890;DHT22;15238;49.082;9.102;2023-04-04T04:48:08;-1.80;99.90
27890;DHT22;15238;49.082;9.102;2023-04-04T04:50:09;-1.80;99.90
27890;DHT22;15238;49.082;9.102;2023-04-04T04:52:10;-1.80;99.90
27890;DHT22;15238;49.082;9.102;2023-04-04T04:54:10;-1.80;99.90
27890;DHT22;15238;49.082;9.102;2023-04-04T04:56:11;-1.90;99.90
27890;DHT22;15238;49.082;9.102;2023-04-04T04:58:11;-1.80;99.90
27890;DHT22;15238;49.082;9.102;2023-04-04T05:00:12;-1.90;99.90
27890;DHT22;15238;49.082;9.102;2023-04-04T05:02:14;-1.90;99.90
27890;DHT22;15238;49.082;9.102;2023-04-04T05:04:14;-1.90;99.90
27890;DHT22;15238;49.082;9.102;2023-04-04T05:06:16;-1.90;99.90
27890;DHT22;15238;49.082;9.102;2023-04-04T05:08:17;-1.90;99.90
27890;DHT22;15238;49.082;9.102;2023-04-04T05:10:18;-1.90;99.90
27890;DHT22;15238;49.082;9.102;2023-04-04T05:12:18;-1.90;99.90
27890;DHT22;15238;49.082;9.102;2023-04-04T05:14:19;-1.90;99.90
27890;DHT22;15238;49.082;9.102;2023-04-04T05:16:20;-1.80;99.90
27890;DHT22;15238;49.082;9.102;2023-04-04T05:18:20;-1.80;99.90
27890;DHT22;15238;49.082;9.102;2023-04-04T05:20:21;-1.80;99.90
27890;DHT22;15238;49.082;9.102;2023-04-04T05:22:22;-1.80;99.90
27890;DHT22;15238;49.082;9.102;2023-04-04T05:24:23;-1.70;99.90
27890;DHT22;15238;49.082;9.102;2023-04-04T05:26:23;-1.70;99.90
27890;DHT22;15238;49.082;9.102;2023-04-04T05:28:24;-1.60;99.90
27890;DHT22;15238;49.082;9.102;2023-04-04T05:30:24;-1.50;99.90
27890;DHT22;15238;49.082;9.102;2023-04-04T05:32:25;-1.50;99.90
27890;DHT22;15238;49.082;9.102;2023-04-04T05:34:25;-1.40;99.90
27890;DHT22;15238;49.082;9.102;2023-04-04T05:36:26;-1.40;99.90
27890;DHT22;15238;49.082;9.102;2023-04-04T05:38:27;-1.30;99.90
27890;DHT22;15238;49.082;9.102;2023-04-04T05:40:28;-1.30;99.90
27890;DHT22;15238;49.082;9.102;2023-04-04T05:42:28;-1.20;99.90
27890;DHT22;15238;49.082;9.102;2023-04-04T05:44:28;-1.10;99.90
27890;DHT22;15238;49.082;9.102;2023-04-04T05:46:29;-1.00;99.90
27890;DHT22;15238;49.082;9.102;2023-04-04T05:48:30;-0.90;99.90
27890;DHT22;15238;49.082;9.102;2023-04-04T05:50:30;-0.90;99.90
27890;DHT22;15238;49.082;9.102;2023-04-04T05:52:31;-0.80;99.90
27890;DHT22;15238;49.082;9.102;2023-04-04T05:54:31;-0.80;99.90
27890;DHT22;15238;49.082;9.102;2023-04-04T05:56:32;-0.70;99.90
27890;DHT22;15238;49.082;9.102;2023-04-04T05:58:33;-0.60;99.90
27890;DHT22;15238;49.082;9.102;2023-04-04T06:00:33;-0.60;99.90
27890;DHT22;15238;49.082;9.102;2023-04-04T06:02:35;-0.50;99.90
27890;DHT22;15238;49.082;9.102;2023-04-04T06:04:37;-0.40;99.90
27890;DHT22;15238;49.082;9.102;2023-04-04T06:06:40;-0.30;99.90
27890;DHT22;15238;49.082;9.102;2023-04-04T06:08:41;-0.20;99.90
27890;DHT22;15238;49.082;9.102;2023-04-04T06:10:41;-0.10;99.90
27890;DHT22;15238;49.082;9.102;2023-04-04T06:12:42;-0.10;99.90
27890;DHT22;15238;49.082;9.102;2023-04-04T06:14:42;0.00;99.90
27890;DHT22;15238;49.082;9.102;2023-04-04T06:16:43;0.10;99.90
27890;DHT22;15238;49.082;9.102;2023-04-04T06:18:43;0.20;99.90
27890;DHT22;15238;49.082;9.102;2023-04-04T06:20:44;0.30;99.90
27890;DHT22;15238;49.082;9.102;2023-04-04T06:22:45;0.30;99.90
27890;DHT22;15238;49.082;9.102;2023-04-04T06:24:45;0.40;99.90
27890;DHT22;15238;49.082;9.102;2023-04-04T06:26:46;0.40;99.90
27890;DHT22;15238;49.082;9.102;2023-04-04T06:28:51;0.50;99.90
27890;DHT22;15238;49.082;9.102;2023-04-04T06:30:51;0.50;99.90
27890;DHT22;15238;49.082;9.102;2023-04-04T06:32:52;0.60;99.90
27890;DHT22;15238;49.082;9.102;2023-04-04T06:34:52;0.70;99.90
27890;DHT22;15238;49.082;9.102;2023-04-04T06:36:53;0.80;99.90
27890;DHT22;15238;49.082;9.102;2023-04-04T06:38:54;0.80;99.90
27890;DHT22;15238;49.082;9.102;2023-04-04T06:40:54;0.80;99.90
27890;DHT22;15238;49.082;9.102;2023-04-04T06:42:55;0.90;99.90
27890;DHT22;15238;49.082;9.102;2023-04-04T06:44:57;1.10;99.90
27890;DHT22;15238;49.082;9.102;2023-04-04T06:46:57;1.10;99.90
27890;DHT22;15238;49.082;9.102;2023-04-04T06:48:58;1.30;99.90
27890;DHT22;15238;49.082;9.102;2023-04-04T06:50:59;1.30;99.90
27890;DHT22;15238;49.082;9.102;2023-04-04T06:52:59;1.50;99.90
27890;DHT22;15238;49.082;9.102;2023-04-04T06:55:01;1.60;99.90
27890;DHT22;15238;49.082;9.102;2023-04-04T06:57:01;1.80;99.90
27890;DHT22;15238;49.082;9.102;2023-04-04T06:59:02;1.90;99.90
27890;DHT22;15238;49.082;9.102;2023-04-04T07:01:02;2.10;99.90
27890;DHT22;15238;49.082;9.102;2023-04-04T07:03:03;2.20;99.90
27890;DHT22;15238;49.082;9.102;2023-04-04T07:05:04;2.30;99.90
27890;DHT22;15238;49.082;9.102;2023-04-04T07:07:04;2.50;99.90
27890;DHT22;15238;49.082;9.102;2023-04-04T07:09:05;2.50;99.90
27890;DHT22;15238;49.082;9.102;2023-04-04T07:11:06;2.70;99.90
27890;DHT22;15238;49.082;9.102;2023-04-04T07:13:07;2.70;99.90
27890;DHT22;15238;49.082;9.102;2023-04-04T07:15:09;2.80;99.90
27890;DHT22;15238;49.082;9.102;2023-04-04T07:17:10;2.80;99.90
27890;DHT22;15238;49.082;9.102;2023-04-04T07:19:10;3.00;99.90
27890;DHT22;15238;49.082;9.102;2023-04-04T07:21:11;3.10;99.90
27890;DHT22;15238;49.082;9.102;2023-04-04T07:23:12;3.20;99.90
27890;DHT22;15238;49.082;9.102;2023-04-04T07:25:14;3.30;99.90
27890;DHT22;15238;49.082;9.102;2023-04-04T07:27:15;3.40;99.90
27890;DHT22;15238;49.082;9.102;2023-04-04T07:29:15;3.50;99.90
27890;DHT22;15238;49.082;9.102;2023-04-04T07:31:16;3.50;99.90
27890;DHT22;15238;49.082;9.102;2023-04-04T07:33:17;3.50;99.90
27890;DHT22;15238;49.082;9.102;2023-04-04T07:35:17;3.60;99.90
27890;DHT22;15238;49.082;9.102;2023-04-04T07:37:18;3.50;99.80
27890;DHT22;15238;49.082;9.102;2023-04-04T07:39:18;3.60;99.90
27890;DHT22;15238;49.082;9.102;2023-04-04T07:41:20;3.70;99.90
27890;DHT22;15238;49.082;9.102;2023-04-04T07:43:21;3.90;99.50
27890;DHT22;15238;49.082;9.102;2023-04-04T07:45:22;4.00;99.40
27890;DHT22;15238;49.082;9.102;2023-04-04T07:47:22;4.00;99.00
27890;DHT22;15238;49.082;9.102;2023-04-04T07:49:23;4.00;98.60
27890;DHT22;15238;49.082;9.102;2023-04-04T07:51:24;4.10;98.30
27890;DHT22;15238;49.082;9.102;2023-04-04T07:53:29;4.20;98.40
27890;DHT22;15238;49.082;9.102;2023-04-04T07:55:30;4.10;98.40
27890;DHT22;15238;49.082;9.102;2023-04-04T07:57:30;4.30;98.10
27890;DHT22;15238;49.082;9.102;2023-04-04T07:59:31;4.40;96.40
27890;DHT22;15238;49.082;9.102;2023-04-04T08:01:32;4.40;96.40
27890;DHT22;15238;49.082;9.102;2023-04-04T08:03:32;4.50;96.80
27890;DHT22;15238;49.082;9.102;2023-04-04T08:05:33;4.50;96.70
27890;DHT22;15238;49.082;9.102;2023-04-04T08:07:33;4.60;96.70
27890;DHT22;15238;49.082;9.102;2023-04-04T08:09:34;4.60;96.50
27890;DHT22;15238;49.082;9.102;2023-04-04T08:11:35;4.70;97.40
27890;DHT22;15238;49.082;9.102;2023-04-04T08:13:36;4.90;95.80
27890;DHT22;15238;49.082;9.102;2023-04-04T08:15:38;5.00;95.80
27890;DHT22;15238;49.082;9.102;2023-04-04T08:17:39;5.10;95.40
27890;DHT22;15238;49.082;9.102;2023-04-04T08:19:40;5.20;95.00
27890;DHT22;15238;49.082;9.102;2023-04-04T08:21:40;5.40;95.40
27890;DHT22;15238;49.082;9.102;2023-04-04T08:23:41;5.40;93.70
27890;DHT22;15238;49.082;9.102;2023-04-04T08:25:42;5.40;93.10
27890;DHT22;15238;49.082;9.102;2023-04-04T08:27:45;5.50;92.20
27890;DHT22;15238;49.082;9.102;2023-04-04T08:29:45;5.60;92.10
27890;DHT22;15238;49.082;9.102;2023-04-04T08:31:47;5.50;91.80
27890;DHT22;15238;49.082;9.102;2023-04-04T08:33:48;5.50;91.80
27890;DHT22;15238;49.082;9.102;2023-04-04T08:35:49;5.60;91.30
27890;DHT22;15238;49.082;9.102;2023-04-04T08:37:49;5.70;91.50
27890;DHT22;15238;49.082;9.102;2023-04-04T08:39:50;5.80;90.70
27890;DHT22;15238;49.082;9.102;2023-04-04T08:42:00;5.70;90.70
27890;DHT22;15238;49.082;9.102;2023-04-04T08:44:02;5.80;91.00
27890;DHT22;15238;49.082;9.102;2023-04-04T08:46:04;5.80;90.30
27890;DHT22;15238;49.082;9.102;2023-04-04T08:48:06;5.90;90.00
27890;DHT22;15238;49.082;9.102;2023-04-04T08:50:07;6.00;91.90
27890;DHT22;15238;49.082;9.102;2023-04-04T08:52:10;6.00;91.70
27890;DHT22;15238;49.082;9.102;2023-04-04T08:54:12;6.40;91.00
27890;DHT22;15238;49.082;9.102;2023-04-04T08:56:13;6.70;88.00
27890;DHT22;15238;49.082;9.102;2023-04-04T08:58:14;6.90;88.20
27890;DHT22;15238;49.082;9.102;2023-04-04T09:00:16;7.00;85.80
27890;DHT22;15238;49.082;9.102;2023-04-04T09:02:38;7.10;82.40
27890;DHT22;15238;49.082;9.102;2023-04-04T09:04:40;7.10;79.40
27890;DHT22;15238;49.082;9.102;2023-04-04T09:06:42;7.20;80.30
27890;DHT22;15238;49.082;9.102;2023-04-04T09:08:43;7.50;80.10
27890;DHT22;15238;49.082;9.102;2023-04-04T09:10:44;7.50;77.40
27890;DHT22;15238;49.082;9.102;2023-04-04T09:12:46;7.40;77.10
27890;DHT22;15238;49.082;9.102;2023-04-04T09:14:49;7.00;76.80
27890;DHT22;15238;49.082;9.102;2023-04-04T09:16:51;6.60;76.40
27890;DHT22;15238;49.082;9.102;2023-04-04T09:18:52;6.50;77.80
27890;DHT22;15238;49.082;9.102;2023-04-04T09:20:53;6.60;78.30
27890;DHT22;15238;49.082;9.102;2023-04-04T09:22:53;6.80;77.70
27890;DHT22;15238;49.082;9.102;2023-04-04T09:24:55;7.20;78.40
27890;DHT22;15238;49.082;9.102;2023-04-04T09:26:56;7.40;75.80
27890;DHT22;15238;49.082;9.102;2023-04-04T09:28:57;7.50;75.50
27890;DHT22;15238;49.082;9.102;2023-04-04T09:31:02;7.50;73.10
27890;DHT22;15238;49.082;9.102;2023-04-04T09:33:04;7.50;79.70
27890;DHT22;15238;49.082;9.102;2023-04-04T09:35:06;7.80;74.10
27890;DHT22;15238;49.082;9.102;2023-04-04T09:37:07;8.10;76.00
27890;DHT22;15238;49.082;9.102;2023-04-04T09:39:08;8.40;73.80
27890;DHT22;15238;49.082;9.102;2023-04-04T09:41:08;8.60;72.60
27890;DHT22;15238;49.082;9.102;2023-04-04T09:43:11;8.60;71.80
27890;DHT22;15238;49.082;9.102;2023-04-04T09:45:11;8.40;68.90
27890;DHT22;15238;49.082;9.102;2023-04-04T09:47:28;8.40;68.20
27890;DHT22;15238;49.082;9.102;2023-04-04T09:49:31;8.30;69.00
27890;DHT22;15238;49.082;9.102;2023-04-04T09:51:35;8.20;70.60
27890;DHT22;15238;49.082;9.102;2023-04-04T09:53:37;8.30;69.80
27890;DHT22;15238;49.082;9.102;2023-04-04T09:55:39;8.20;69.10
27890;DHT22;15238;49.082;9.102;2023-04-04T09:57:40;7.90;75.10
27890;DHT22;15238;49.082;9.102;2023-04-04T09:59:41;7.40;76.40
27890;DHT22;15238;49.082;9.102;2023-04-04T10:01:43;6.80;75.60
27890;DHT22;15238;49.082;9.102;2023-04-04T10:03:53;6.70;75.60
27890;DHT22;15238;49.082;9.102;2023-04-04T10:05:57;6.70;76.80
27890;DHT22;15238;49.082;9.102;2023-04-04T10:07:58;6.70;77.10
27890;DHT22;15238;49.082;9.102;2023-04-04T10:10:04;6.90;76.50
27890;DHT22;15238;49.082;9.102;2023-04-04T10:12:09;7.00;74.60
27890;DHT22;15238;49.082;9.102;2023-04-04T10:14:10;7.20;74.40
27890;DHT22;15238;49.082;9.102;2023-04-04T10:16:10;7.20;77.20
27890;DHT22;15238;49.082;9.102;2023-04-04T10:18:12;7.40;77.40
27890;DHT22;15238;49.082;9.102;2023-04-04T10:20:13;7.50;75.60
27890;DHT22;15238;49.082;9.102;2023-04-04T10:22:15;7.70;73.80
27890;DHT22;15238;49.082;9.102;2023-04-04T10:24:16;7.90;76.20
27890;DHT22;15238;49.082;9.102;2023-04-04T10:26:18;7.60;77.50
27890;DHT22;15238;49.082;9.102;2023-04-04T10:28:19;7.70;76.70
27890;DHT22;15238;49.082;9.102;2023-04-04T10:30:20;7.60;73.60
27890;DHT22;15238;49.082;9.102;2023-04-04T10:32:52;7.70;73.20
27890;DHT22;15238;49.082;9.102;2023-04-04T10:35:04;7.70;77.30
27890;DHT22;15238;49.082;9.102;2023-04-04T10:37:12;8.00;74.80
27890;DHT22;15238;49.082;9.102;2023-04-04T10:39:25;7.80;77.20
27890;DHT22;15238;49.082;9.102;2023-04-04T10:41:30;7.50;77.90
27890;DHT22;15238;49.082;9.102;2023-04-04T10:43:34;7.50;80.00
27890;DHT22;15238;49.082;9.102;2023-04-04T10:45:39;7.60;77.30
27890;DHT22;15238;49.082;9.102;2023-04-04T10:47:43;7.70;78.30
27890;DHT22;15238;49.082;9.102;2023-04-04T10:49:45;7.70;77.70
27890;DHT22;15238;49.082;9.102;2023-04-04T10:51:46;7.60;77.40
27890;DHT22;15238;49.082;9.102;2023-04-04T10:53:48;7.40;76.90
27890;DHT22;15238;49.082;9.102;2023-04-04T10:55:50;7.30;75.50
27890;DHT22;15238;49.082;9.102;2023-04-04T10:57:51;7.20;77.70
27890;DHT22;15238;49.082;9.102;2023-04-04T11:02:02;7.30;80.90
27890;DHT22;15238;49.082;9.102;2023-04-04T11:04:19;7.30;80.50
27890;DHT22;15238;49.082;9.102;2023-04-04T11:06:22;7.50;78.20
27890;DHT22;15238;49.082;9.102;2023-04-04T11:08:25;7.60;78.90
27890;DHT22;15238;49.082;9.102;2023-04-04T11:10:28;7.80;82.10
27890;DHT22;15238;49.082;9.102;2023-04-04T11:12:30;7.40;77.80
27890;DHT22;15238;49.082;9.102;2023-04-04T11:14:35;7.50;79.10
27890;DHT22;15238;49.082;9.102;2023-04-04T11:16:45;7.50;79.50
27890;DHT22;15238;49.082;9.102;2023-04-04T11:18:46;7.50;77.10
27890;DHT22;15238;49.082;9.102;2023-04-04T11:20:47;7.50;80.20
27890;DHT22;15238;49.082;9.102;2023-04-04T11:22:49;7.70;79.40
27890;DHT22;15238;49.082;9.102;2023-04-04T11:24:58;7.70;76.80
27890;DHT22;15238;49.082;9.102;2023-04-04T11:26:59;7.80;79.90
27890;DHT22;15238;49.082;9.102;2023-04-04T11:29:01;7.60;77.00
27890;DHT22;15238;49.082;9.102;2023-04-04T11:33:29;7.50;80.00
27890;DHT22;15238;49.082;9.102;2023-04-04T11:35:37;7.80;77.70
27890;DHT22;15238;49.082;9.102;2023-04-04T11:39:52;7.80;75.00
27890;DHT22;15238;49.082;9.102;2023-04-04T11:42:14;7.90;75.60
27890;DHT22;15238;49.082;9.102;2023-04-04T11:44:15;8.10;76.20
27890;DHT22;15238;49.082;9.102;2023-04-04T11:46:27;7.90;73.40
27890;DHT22;15238;49.082;9.102;2023-04-04T11:48:29;7.70;74.50
27890;DHT22;15238;49.082;9.102;2023-04-04T11:50:39;7.70;75.80
27890;DHT22;15238;49.082;9.102;2023-04-04T11:52:40;7.70;73.80
27890;DHT22;15238;49.082;9.102;2023-04-04T11:54:43;7.80;74.10
27890;DHT22;15238;49.082;9.102;2023-04-04T11:56:44;7.80;74.60
27890;DHT22;15238;49.082;9.102;2023-04-04T11:58:46;7.70;76.50
27890;DHT22;15238;49.082;9.102;2023-04-04T12:00:47;7.80;74.20
27890;DHT22;15238;49.082;9.102;2023-04-04T12:02:49;7.80;76.10
27890;DHT22;15238;49.082;9.102;2023-04-04T12:04:51;8.00;77.80
27890;DHT22;15238;49.082;9.102;2023-04-04T12:06:52;8.00;73.00
27890;DHT22;15238;49.082;9.102;2023-04-04T12:08:53;8.00;81.60
27890;DHT22;15238;49.082;9.102;2023-04-04T12:10:54;8.00;75.50
27890;DHT22;15238;49.082;9.102;2023-04-04T12:12:57;8.20;76.50
27890;DHT22;15238;49.082;9.102;2023-04-04T12:14:58;8.10;73.40
27890;DHT22;15238;49.082;9.102;2023-04-04T12:16:58;8.10;74.20
27890;DHT22;15238;49.082;9.102;2023-04-04T12:19:02;8.10;71.80
27890;DHT22;15238;49.082;9.102;2023-04-04T12:21:02;8.20;73.90
27890;DHT22;15238;49.082;9.102;2023-04-04T12:23:06;8.10;73.30
27890;DHT22;15238;49.082;9.102;2023-04-04T12:25:07;8.20;73.10
27890;DHT22;15238;49.082;9.102;2023-04-04T12:27:09;8.00;70.00
27890;DHT22;15238;49.082;9.102;2023-04-04T12:29:11;8.00;77.10
27890;DHT22;15238;49.082;9.102;2023-04-04T12:31:12;8.10;79.40
27890;DHT22;15238;49.082;9.102;2023-04-04T12:33:13;8.30;75.80
27890;DHT22;15238;49.082;9.102;2023-04-04T12:35:14;8.40;75.90
27890;DHT22;15238;49.082;9.102;2023-04-04T12:37:15;8.40;74.00
27890;DHT22;15238;49.082;9.102;2023-04-04T12:39:19;8.40;76.10
27890;DHT22;15238;49.082;9.102;2023-04-04T12:41:21;8.30;77.40
27890;DHT22;15238;49.082;9.102;2023-04-04T12:43:26;8.30;75.90
27890;DHT22;15238;49.082;9.102;2023-04-04T12:45:27;8.40;74.80
27890;DHT22;15238;49.082;9.102;2023-04-04T12:47:30;8.40;73.80
27890;DHT22;15238;49.082;9.102;2023-04-04T12:49:41;8.40;74.10
27890;DHT22;15238;49.082;9.102;2023-04-04T12:51:43;8.50;71.40
27890;DHT22;15238;49.082;9.102;2023-04-04T12:53:51;8.50;75.40
27890;DHT22;15238;49.082;9.102;2023-04-04T12:56:00;8.50;77.40
27890;DHT22;15238;49.082;9.102;2023-04-04T12:58:03;8.50;74.80
27890;DHT22;15238;49.082;9.102;2023-04-04T13:00:06;8.50;70.90
27890;DHT22;15238;49.082;9.102;2023-04-04T13:02:11;8.40;73.20
27890;DHT22;15238;49.082;9.102;2023-04-04T13:04:12;8.30;70.70
27890;DHT22;15238;49.082;9.102;2023-04-04T13:06:17;8.30;73.40
27890;DHT22;15238;49.082;9.102;2023-04-04T13:08:17;8.20;73.10